createdAt,value
2023-02-27T00:03:02.480Z,74.53
2023-02-27T00:08:09.897Z,74.62
2023-02-27T00:13:17.171Z,75.00
2023-02-27T00:18:24.875Z,74.89
2023-02-27T00:23:32.261Z,74.70
2023-02-27T00:28:40.043Z,74.66
2023-02-27T00:33:47.732Z,74.42
2023-02-27T00:38:55.519Z,74.26
2023-02-27T00:44:03.404Z,73.16
2023-02-27T00:49:11.017Z,72.87
2023-02-27T00:54:18.720Z,72.94
2023-02-27T00:59:26.490Z,73.02
2023-02-27T01:04:35.075Z,72.88
2023-02-27T01:09:42.602Z,72.89
2023-02-27T01:14:50.156Z,72.35
2023-02-27T01:19:57.693Z,72.12
2023-02-27T01:25:05.701Z,71.96
2023-02-27T01:30:15.912Z,72.26
2023-02-27T01:35:23.194Z,72.21
2023-02-27T01:40:29.426Z,71.51
2023-02-27T01:45:41.129Z,70.62
2023-02-27T01:50:54.887Z,70.51
2023-02-27T01:56:07.544Z,69.97
2023-02-27T02:01:15.334Z,70.00
2023-02-27T02:06:24.392Z,69.93
2023-02-27T02:11:31.981Z,69.65
2023-02-27T02:16:54.779Z,68.89
2023-02-27T02:22:37.857Z,68.60
2023-02-27T02:28:02.301Z,68.75
2023-02-27T02:33:36.936Z,68.71
2023-02-27T02:38:58.665Z,68.98
2023-02-27T02:44:13.437Z,68.76
2023-02-27T02:49:29.792Z,68.93
2023-02-27T02:54:43.576Z,69.28
2023-02-27T02:59:58.519Z,69.37
2023-02-27T03:05:11.347Z,69.08
2023-02-27T03:10:22.731Z,68.96
2023-02-27T03:15:32.927Z,68.97
2023-02-27T03:20:44.100Z,68.25
2023-02-27T03:25:52.990Z,67.83
2023-02-27T03:31:09.025Z,66.70
2023-02-27T03:36:27.811Z,64.86
2023-02-27T03:41:39.941Z,64.36
2023-02-27T03:46:47.330Z,63.14
2023-02-27T03:51:55.339Z,63.74
2023-02-27T03:57:05.863Z,62.04
2023-02-27T04:02:13.486Z,61.49
2023-02-27T04:07:32.375Z,60.80
2023-02-27T04:13:07.092Z,60.22
2023-02-27T04:18:26.596Z,59.34
2023-02-27T04:23:41.506Z,58.35
2023-02-27T04:28:58.325Z,57.71
2023-02-27T04:34:13.991Z,57.70
2023-02-27T04:39:27.870Z,56.86
2023-02-27T04:44:38.142Z,56.52
2023-02-27T04:49:48.960Z,57.34
2023-02-27T04:55:01.128Z,58.53
2023-02-27T05:00:14.015Z,60.24
2023-02-27T05:05:26.608Z,60.31
2023-02-27T05:10:41.542Z,60.90
2023-02-27T05:15:51.296Z,60.78
2023-02-27T05:21:07.334Z,60.66
2023-02-27T05:26:21.157Z,60.42
2023-02-27T05:31:36.774Z,59.12
2023-02-27T05:36:49.552Z,59.61
2023-02-27T05:42:01.600Z,60.16
2023-02-27T05:47:13.578Z,60.63
2023-02-27T05:52:24.546Z,62.05
2023-02-27T05:57:37.613Z,61.31
2023-02-27T06:02:46.329Z,61.64
2023-02-27T06:07:54.256Z,62.49
2023-02-27T06:13:01.693Z,63.27
2023-02-27T06:18:10.925Z,64.27
2023-02-27T06:23:19.136Z,65.08
2023-02-27T06:28:26.458Z,66.33
2023-02-27T06:33:33.837Z,67.32
2023-02-27T06:38:41.329Z,68.77
2023-02-27T06:43:49.047Z,69.84
2023-02-27T06:48:56.472Z,70.61
2023-02-27T06:54:03.669Z,71.26
2023-02-27T06:59:09.763Z,71.67
2023-02-27T07:04:18.983Z,71.79
2023-02-27T07:09:26.406Z,72.15
2023-02-27T07:14:34.022Z,72.11
2023-02-27T07:19:41.387Z,72.19
2023-02-27T07:24:48.944Z,71.99
2023-02-27T07:29:56.290Z,72.06
2023-02-27T07:35:04.803Z,71.99
2023-02-27T07:40:14.647Z,71.91
2023-02-27T07:45:22.722Z,71.60
2023-02-27T07:50:30.211Z,71.17
2023-02-27T07:55:37.551Z,70.79
2023-02-27T08:00:45.097Z,70.45
2023-02-27T08:05:52.968Z,69.83
2023-02-27T08:11:00.103Z,69.44
2023-02-27T08:16:09.143Z,68.27
2023-02-27T08:21:17.493Z,68.00
2023-02-27T08:26:29.809Z,67.89
2023-02-27T08:31:37.269Z,67.28
2023-02-27T08:36:45.054Z,68.33
2023-02-27T08:41:54.185Z,67.42
2023-02-27T08:47:02.042Z,67.18
2023-02-27T08:52:10.223Z,67.41
2023-02-27T08:57:18.260Z,65.22
2023-02-27T09:02:26.681Z,64.60
2023-02-27T09:07:36.943Z,66.03
2023-02-27T09:12:44.408Z,64.44
2023-02-27T09:17:51.621Z,64.75
2023-02-27T09:22:57.221Z,65.11
2023-02-27T09:28:04.953Z,64.53
2023-02-27T09:33:12.941Z,64.40
2023-02-27T09:38:20.370Z,64.93
2023-02-27T09:43:36.265Z,62.43
2023-02-27T09:48:49.143Z,60.78
2023-02-27T09:54:00.410Z,61.29
2023-02-27T09:59:17.890Z,62.74
2023-02-27T10:04:32.838Z,61.42
2023-02-27T10:09:52.641Z,61.17
2023-02-27T10:15:06.044Z,61.92
2023-02-27T10:20:23.782Z,63.93
2023-02-27T10:25:36.482Z,63.55
2023-02-27T10:30:46.181Z,63.74
2023-02-27T10:35:54.098Z,64.32
2023-02-27T10:41:02.988Z,64.94
2023-02-27T10:46:17.159Z,66.55
2023-02-27T10:51:28.366Z,68.74
2023-02-27T10:56:37.364Z,70.18
2023-02-27T11:01:53.147Z,70.64
2023-02-27T11:07:03.185Z,70.78
2023-02-27T11:12:25.446Z,71.63
2023-02-27T11:17:34.379Z,71.90
2023-02-27T11:22:43.201Z,71.07
2023-02-27T11:27:53.170Z,70.26
2023-02-27T11:33:02.996Z,68.29
2023-02-27T11:38:20.321Z,68.13
2023-02-27T11:43:30.796Z,68.01
2023-02-27T11:48:41.694Z,66.39
2023-02-27T11:54:15.936Z,64.73
2023-02-27T11:59:38.569Z,64.73
2023-02-27T12:04:53.444Z,66.63
2023-02-27T12:10:07.503Z,65.97
2023-02-27T12:15:25.317Z,64.71
2023-02-27T12:20:40.249Z,66.17
2023-02-27T12:25:52.920Z,64.39
2023-02-27T12:31:13.378Z,64.54
2023-02-27T12:36:20.948Z,65.00
2023-02-27T12:41:41.853Z,66.44
2023-02-27T12:46:58.476Z,67.15
2023-02-27T12:52:14.821Z,67.79
2023-02-27T12:57:38.483Z,68.17
2023-02-27T13:03:02.163Z,68.56
2023-02-27T13:08:21.223Z,69.61
2023-02-27T13:13:36.495Z,70.02
2023-02-27T13:18:49.792Z,71.05
2023-02-27T13:24:12.403Z,71.41
2023-02-27T13:29:23.810Z,71.66
2023-02-27T13:34:37.451Z,71.45
2023-02-27T13:39:59.687Z,71.47
2023-02-27T13:45:30.050Z,70.75
2023-02-27T13:50:54.648Z,71.31
2023-02-27T13:56:25.924Z,70.96
2023-02-27T14:01:35.254Z,70.25
2023-02-27T14:06:49.679Z,69.16
2023-02-27T14:12:04.992Z,68.95
2023-02-27T14:17:13.807Z,66.88
2023-02-27T14:22:48.547Z,65.54
2023-02-27T14:27:59.891Z,65.47
2023-02-27T14:33:33.350Z,63.45
2023-02-27T14:38:48.390Z,64.03
2023-02-27T14:43:58.333Z,65.10
2023-02-27T14:49:09.666Z,62.53
2023-02-27T14:54:21.583Z,61.06
2023-02-27T14:59:31.641Z,60.81
2023-02-27T15:04:38.965Z,62.24
2023-02-27T15:09:50.371Z,64.35
2023-02-27T15:14:59.803Z,65.55
2023-02-27T15:20:27.951Z,66.03
2023-02-27T15:25:38.340Z,66.32
2023-02-27T15:30:48.855Z,67.92
2023-02-27T15:35:57.074Z,68.73
2023-02-27T15:41:05.769Z,68.56
2023-02-27T15:46:13.626Z,67.82
2023-02-27T15:51:21.412Z,67.74
2023-02-27T15:56:34.647Z,68.33
2023-02-27T16:01:42.891Z,69.66
2023-02-27T16:06:58.713Z,70.12
2023-02-27T16:12:29.635Z,70.32
2023-02-27T16:17:37.029Z,70.36
2023-02-27T16:23:04.737Z,70.33
2023-02-27T16:28:14.309Z,70.34
2023-02-27T16:33:24.735Z,70.17
2023-02-27T16:38:32.243Z,69.72
2023-02-27T16:43:40.211Z,69.51
2023-02-27T16:48:47.583Z,69.39
2023-02-27T16:53:56.042Z,69.70
2023-02-27T16:59:04.394Z,69.41
2023-02-27T17:04:24.992Z,69.01
2023-02-27T17:09:33.038Z,68.42
2023-02-27T17:14:40.420Z,68.71
2023-02-27T17:19:48.079Z,68.40
2023-02-27T17:24:55.721Z,68.92
2023-02-27T17:30:02.828Z,68.87
2023-02-27T17:35:09.540Z,69.32
2023-02-27T17:40:16.967Z,69.67
2023-02-27T17:45:27.271Z,69.75
2023-02-27T17:50:34.726Z,69.97
2023-02-27T17:55:43.406Z,69.85
2023-02-27T18:00:50.745Z,69.08
2023-02-27T18:05:58.627Z,69.07
2023-02-27T18:11:10.898Z,69.19
2023-02-27T18:16:19.038Z,68.97
2023-02-27T18:21:26.369Z,68.96
2023-02-27T18:26:35.290Z,68.93
2023-02-27T18:31:44.682Z,69.35
2023-02-27T18:36:52.928Z,69.15
2023-02-27T18:42:00.141Z,69.11
2023-02-27T18:47:08.170Z,69.04
2023-02-27T18:52:15.855Z,68.91
2023-02-27T18:57:23.393Z,69.13
2023-02-27T19:02:29.217Z,68.86
2023-02-27T19:07:36.805Z,68.31
2023-02-27T19:12:44.508Z,68.34
2023-02-27T19:17:51.912Z,67.74
2023-02-27T19:23:00.444Z,67.90
2023-02-27T19:28:08.347Z,68.00
2023-02-27T19:33:15.959Z,67.91
2023-02-27T19:38:23.628Z,68.21
2023-02-27T19:43:31.540Z,68.23
2023-02-27T19:48:39.175Z,68.53
2023-02-27T19:53:48.737Z,68.33
2023-02-27T19:58:57.889Z,68.52
2023-02-27T20:04:06.544Z,68.74
2023-02-27T20:09:15.825Z,69.02
2023-02-27T20:19:32.382Z,68.38
2023-02-27T20:24:39.774Z,68.23
2023-02-27T20:29:48.551Z,67.95
2023-02-27T20:34:57.092Z,68.13
2023-02-27T20:40:05.133Z,68.28
2023-02-27T20:45:13.630Z,68.18
2023-02-27T20:50:21.450Z,68.61
2023-02-27T20:55:30.736Z,68.32
2023-02-27T21:00:38.675Z,68.21
2023-02-27T21:05:51.588Z,68.27
2023-02-27T21:11:01.002Z,68.26
2023-02-27T21:16:11.235Z,68.05
2023-02-27T21:21:23.111Z,67.35
2023-02-27T21:26:35.065Z,67.35
2023-02-27T21:31:45.365Z,67.65
2023-02-27T21:36:53.839Z,68.09
2023-02-27T21:42:01.632Z,67.44
2023-02-27T21:47:10.417Z,67.72
2023-02-27T21:52:18.479Z,67.33
2023-02-27T21:57:26.195Z,67.40
2023-02-27T22:02:33.817Z,66.78
2023-02-27T22:07:41.452Z,66.63
2023-02-27T22:12:49.233Z,66.45
2023-02-27T22:17:56.723Z,65.59
2023-02-27T22:23:04.867Z,66.12
2023-02-27T22:28:12.246Z,66.38
2023-02-27T22:33:19.722Z,66.42
2023-02-27T22:38:28.011Z,66.21
2023-02-27T22:43:36.043Z,66.28
2023-02-27T22:48:43.388Z,66.65
2023-02-27T22:53:49.161Z,66.64
2023-02-27T22:58:57.346Z,67.01
2023-02-27T23:04:07.414Z,66.44
2023-02-27T23:09:18.243Z,67.01
2023-02-27T23:14:26.206Z,67.17
2023-02-27T23:19:34.408Z,67.18
2023-02-27T23:24:42.809Z,66.77
2023-02-27T23:29:50.078Z,66.23
2023-02-27T23:34:57.771Z,66.73
2023-02-27T23:40:07.021Z,66.67
2023-02-27T23:45:24.564Z,66.79
2023-02-27T23:50:31.212Z,66.83
2023-02-27T23:55:39.454Z,67.26
